sensor_id;sensor_type;location;lat;lon;timestamp;pressure;altitude;pressure_sealevel;temperature;humidity
17785;BME280;9016;53.582;10.062;2022-09-29T00:00:55;99907.84;;;10.27;87.80
17785;BME280;9016;53.582;10.062;2022-09-29T00:03:23;99914.38;;;10.11;87.81
17785;BME280;9016;53.582;10.062;2022-09-29T00:05:53;99910.63;;;10.00;88.86
17785;BME280;9016;53.582;10.062;2022-09-29T00:08:27;99907.63;;;10.05;88.95
17785;BME280;9016;53.582;10.062;2022-09-29T00:10:55;99906.66;;;10.06;88.32
17785;BME280;9016;53.582;10.062;2022-09-29T00:13:23;99909.56;;;10.03;88.58
17785;BME280;9016;53.582;10.062;2022-09-29T00:15:56;99904.88;;;10.07;87.82
17785;BME280;9016;53.582;10.062;2022-09-29T00:18:25;99901.56;;;10.03;87.72
17785;BME280;9016;53.582;10.062;2022-09-29T00:20:58;99913.03;;;10.03;87.39
17785;BME280;9016;53.582;10.062;2022-09-29T00:23:28;99902.94;;;9.96;88.13
17785;BME280;9016;53.582;10.062;2022-09-29T00:26:02;99898.59;;;9.95;87.62
17785;BME280;9016;53.582;10.062;2022-09-29T00:28:31;99909.25;;;9.95;87.79
17785;BME280;9016;53.582;10.062;2022-09-29T00:30:59;99899.75;;;9.91;87.33
17785;BME280;9016;53.582;10.062;2022-09-29T00:33:28;99909.03;;;9.85;88.16
17785;BME280;9016;53.582;10.062;2022-09-29T00:35:58;99901.59;;;9.78;88.44
17785;BME280;9016;53.582;10.062;2022-09-29T00:38:29;99908.06;;;9.74;88.25
17785;BME280;9016;53.582;10.062;2022-09-29T00:40:57;99901.94;;;9.73;88.56
17785;BME280;9016;53.582;10.062;2022-09-29T00:43:51;99905.97;;;9.79;87.88
17785;BME280;9016;53.582;10.062;2022-09-29T00:46:25;99902.44;;;9.78;87.99
17785;BME280;9016;53.582;10.062;2022-09-29T00:48:59;99902.03;;;9.72;87.90
17785;BME280;9016;53.582;10.062;2022-09-29T00:51:32;99899.81;;;9.66;88.58
17785;BME280;9016;53.582;10.062;2022-09-29T00:54:02;99903.63;;;9.62;88.63
17785;BME280;9016;53.582;10.062;2022-09-29T00:56:31;99910.09;;;9.58;88.65
17785;BME280;9016;53.582;10.062;2022-09-29T00:59:03;99906.81;;;9.54;89.47
17785;BME280;9016;53.582;10.062;2022-09-29T01:01:32;99914.69;;;9.56;89.02
17785;BME280;9016;53.582;10.062;2022-09-29T01:04:03;99900.75;;;9.52;89.28
17785;BME280;9016;53.582;10.062;2022-09-29T01:06:35;99901.59;;;9.53;89.17
17785;BME280;9016;53.582;10.062;2022-09-29T01:09:09;99902.78;;;9.49;89.25
17785;BME280;9016;53.582;10.062;2022-09-29T01:11:38;99905.00;;;9.42;89.10
17785;BME280;9016;53.582;10.062;2022-09-29T01:14:09;99904.16;;;9.42;89.66
17785;BME280;9016;53.582;10.062;2022-09-29T01:16:37;99899.69;;;9.42;89.09
17785;BME280;9016;53.582;10.062;2022-09-29T01:19:15;99899.59;;;9.44;88.55
17785;BME280;9016;53.582;10.062;2022-09-29T01:21:54;99899.34;;;9.34;89.17
17785;BME280;9016;53.582;10.062;2022-09-29T01:24:46;99894.03;;;9.34;88.46
17785;BME280;9016;53.582;10.062;2022-09-29T01:27:47;99896.47;;;9.37;88.58
17785;BME280;9016;53.582;10.062;2022-09-29T01:30:38;99900.22;;;9.35;88.83
17785;BME280;9016;53.582;10.062;2022-09-29T01:33:17;99902.53;;;9.39;88.71
17785;BME280;9016;53.582;10.062;2022-09-29T01:35:57;99897.56;;;9.35;87.83
17785;BME280;9016;53.582;10.062;2022-09-29T01:38:43;99898.09;;;9.27;88.13
17785;BME280;9016;53.582;10.062;2022-09-29T01:41:22;99900.22;;;9.22;88.83
17785;BME280;9016;53.582;10.062;2022-09-29T01:43:57;99899.00;;;9.14;88.93
17785;BME280;9016;53.582;10.062;2022-09-29T01:46:32;99909.84;;;9.11;89.55
17785;BME280;9016;53.582;10.062;2022-09-29T01:49:03;99905.59;;;9.08;89.76
17785;BME280;9016;53.582;10.062;2022-09-29T01:51:38;99909.22;;;9.07;89.78
17785;BME280;9016;53.582;10.062;2022-09-29T01:54:12;99900.81;;;9.13;89.83
17785;BME280;9016;53.582;10.062;2022-09-29T01:56:44;99906.69;;;9.18;89.04
17785;BME280;9016;53.582;10.062;2022-09-29T01:59:17;99897.63;;;9.21;88.42
17785;BME280;9016;53.582;10.062;2022-09-29T02:01:49;99899.34;;;9.22;88.45
17785;BME280;9016;53.582;10.062;2022-09-29T02:04:27;99906.56;;;9.20;87.64
17785;BME280;9016;53.582;10.062;2022-09-29T02:06:59;99903.81;;;9.21;88.40
17785;BME280;9016;53.582;10.062;2022-09-29T02:09:37;99912.09;;;9.17;87.59
17785;BME280;9016;53.582;10.062;2022-09-29T02:12:07;99900.72;;;9.15;88.15
17785;BME280;9016;53.582;10.062;2022-09-29T02:14:39;99905.47;;;9.10;87.67
17785;BME280;9016;53.582;10.062;2022-09-29T02:17:13;99902.63;;;9.13;88.25
17785;BME280;9016;53.582;10.062;2022-09-29T02:19:46;99909.84;;;9.11;88.30
17785;BME280;9016;53.582;10.062;2022-09-29T02:22:15;99909.84;;;9.11;87.89
17785;BME280;9016;53.582;10.062;2022-09-29T02:24:43;99912.91;;;9.05;87.58
17785;BME280;9016;53.582;10.062;2022-09-29T02:27:11;99908.00;;;8.98;88.25
17785;BME280;9016;53.582;10.062;2022-09-29T02:29:40;99915.16;;;8.98;88.69
17785;BME280;9016;53.582;10.062;2022-09-29T02:32:08;99921.50;;;8.95;88.88
17785;BME280;9016;53.582;10.062;2022-09-29T02:34:41;99917.44;;;8.90;88.91
17785;BME280;9016;53.582;10.062;2022-09-29T02:37:23;99922.75;;;8.90;88.54
17785;BME280;9016;53.582;10.062;2022-09-29T02:40:04;99921.50;;;8.95;88.97
17785;BME280;9016;53.582;10.062;2022-09-29T02:42:47;99915.03;;;8.99;89.12
17785;BME280;9016;53.582;10.062;2022-09-29T02:45:29;99916.53;;;9.04;88.30
17785;BME280;9016;53.582;10.062;2022-09-29T02:48:13;99919.81;;;8.94;89.17
17785;BME280;9016;53.582;10.062;2022-09-29T02:51:00;99909.09;;;8.96;88.51
17785;BME280;9016;53.582;10.062;2022-09-29T02:53:50;99911.75;;;8.96;88.21
17785;BME280;9016;53.582;10.062;2022-09-29T02:56:24;99919.59;;;8.97;89.19
17785;BME280;9016;53.582;10.062;2022-09-29T02:58:59;99917.59;;;9.01;88.79
17785;BME280;9016;53.582;10.062;2022-09-29T03:01:30;99915.03;;;8.99;88.11
17785;BME280;9016;53.582;10.062;2022-09-29T03:03:58;99915.03;;;8.99;88.35
17785;BME280;9016;53.582;10.062;2022-09-29T03:06:31;99916.72;;;9.00;88.14
17785;BME280;9016;53.582;10.062;2022-09-29T03:08:59;99917.81;;;8.98;88.57
17785;BME280;9016;53.582;10.062;2022-09-29T03:11:27;99918.75;;;8.97;88.25
17785;BME280;9016;53.582;10.062;2022-09-29T03:13:55;99917.81;;;8.98;88.13
17785;BME280;9016;53.582;10.062;2022-09-29T03:16:23;99918.75;;;8.97;88.21
17785;BME280;9016;53.582;10.062;2022-09-29T03:18:51;99919.72;;;8.96;88.30
17785;BME280;9016;53.582;10.062;2022-09-29T03:21:20;99918.97;;;8.94;88.95
17785;BME280;9016;53.582;10.062;2022-09-29T03:23:50;99918.63;;;8.98;88.55
17785;BME280;9016;53.582;10.062;2022-09-29T03:26:23;99912.38;;;8.99;88.27
17785;BME280;9016;53.582;10.062;2022-09-29T03:28:52;99920.53;;;8.96;88.47
17785;BME280;9016;53.582;10.062;2022-09-29T03:31:20;99923.94;;;8.98;88.25
17785;BME280;9016;53.582;10.062;2022-09-29T03:33:48;99911.63;;;8.97;88.29
17785;BME280;9016;53.582;10.062;2022-09-29T03:36:16;99926.72;;;8.97;87.59
17785;BME280;9016;53.582;10.062;2022-09-29T03:38:44;99929.03;;;8.89;88.64
17785;BME280;9016;53.582;10.062;2022-09-29T03:41:14;99930.72;;;8.90;89.28
17785;BME280;9016;53.582;10.062;2022-09-29T03:43:42;99925.41;;;8.90;88.76
17785;BME280;9016;53.582;10.062;2022-09-29T03:46:10;99932.63;;;8.88;88.60
17785;BME280;9016;53.582;10.062;2022-09-29T03:48:38;99934.09;;;8.79;88.80
17785;BME280;9016;53.582;10.062;2022-09-29T03:51:06;99935.78;;;8.80;89.00
17785;BME280;9016;53.582;10.062;2022-09-29T03:53:36;99923.25;;;8.82;88.61
17785;BME280;9016;53.582;10.062;2022-09-29T03:56:04;99927.72;;;8.82;89.09
17785;BME280;9016;53.582;10.062;2022-09-29T03:58:33;99922.72;;;8.77;89.05
17785;BME280;9016;53.582;10.062;2022-09-29T04:01:01;99920.25;;;8.74;89.78
17785;BME280;9016;53.582;10.062;2022-09-29T04:03:29;99928.31;;;8.73;89.64
17785;BME280;9016;53.582;10.062;2022-09-29T04:05:57;99923.97;;;8.72;89.81
17785;BME280;9016;53.582;10.062;2022-09-29T04:08:25;99930.03;;;8.74;89.60
17785;BME280;9016;53.582;10.062;2022-09-29T04:10:53;99934.59;;;8.72;89.69
17785;BME280;9016;53.582;10.062;2022-09-29T04:13:21;99932.88;;;8.71;89.95
17785;BME280;9016;53.582;10.062;2022-09-29T04:15:50;99933.53;;;8.74;89.97
17785;BME280;9016;53.582;10.062;2022-09-29T04:18:18;99937.25;;;8.72;90.09
17785;BME280;9016;53.582;10.062;2022-09-29T04:20:46;99942.56;;;8.72;90.89
17785;BME280;9016;53.582;10.062;2022-09-29T04:23:14;99945.22;;;8.72;90.24
17785;BME280;9016;53.582;10.062;2022-09-29T04:25:43;99946.75;;;8.76;90.26
17785;BME280;9016;53.582;10.062;2022-09-29T04:28:12;99954.50;;;8.79;90.06
17785;BME280;9016;53.582;10.062;2022-09-29T04:30:39;99950.88;;;8.80;90.63
17785;BME280;9016;53.582;10.062;2022-09-29T04:33:09;99951.63;;;8.82;90.53
17785;BME280;9016;53.582;10.062;2022-09-29T04:35:37;99948.13;;;8.81;90.21
17785;BME280;9016;53.582;10.062;2022-09-29T04:38:05;99955.03;;;8.84;90.17
17785;BME280;9016;53.582;10.062;2022-09-29T04:40:34;99960.25;;;8.85;90.08
17785;BME280;9016;53.582;10.062;2022-09-29T04:43:02;99958.34;;;8.87;90.29
17785;BME280;9016;53.582;10.062;2022-09-29T04:45:30;99966.13;;;8.90;90.69
17785;BME280;9016;53.582;10.062;2022-09-29T04:47:59;99966.88;;;8.92;90.20
17785;BME280;9016;53.582;10.062;2022-09-29T04:50:28;99961.13;;;8.98;89.79
17785;BME280;9016;53.582;10.062;2022-09-29T04:52:56;99966.47;;;8.98;89.72
17785;BME280;9016;53.582;10.062;2022-09-29T04:55:24;99960.84;;;9.03;89.81
17785;BME280;9016;53.582;10.062;2022-09-29T04:57:52;99966.81;;;9.07;89.23
17785;BME280;9016;53.582;10.062;2022-09-29T05:00:20;99980.84;;;9.09;88.91
17785;BME280;9016;53.582;10.062;2022-09-29T05:02:48;99974.50;;;9.11;88.86
17785;BME280;9016;53.582;10.062;2022-09-29T05:05:17;99961.63;;;9.18;88.77
17785;BME280;9016;53.582;10.062;2022-09-29T05:07:46;99963.44;;;9.17;88.27
17785;BME280;9016;53.582;10.062;2022-09-29T05:10:14;99961.22;;;9.11;88.46
17785;BME280;9016;53.582;10.062;2022-09-29T05:12:46;99972.66;;;9.12;88.45
17785;BME280;9016;53.582;10.062;2022-09-29T05:15:15;99974.28;;;9.14;89.09
17785;BME280;9016;53.582;10.062;2022-09-29T05:17:51;99966.59;;;9.10;88.88
17785;BME280;9016;53.582;10.062;2022-09-29T05:20:19;99963.94;;;9.10;89.29
17785;BME280;9016;53.582;10.062;2022-09-29T05:22:48;99966.72;;;9.08;88.56
17785;BME280;9016;53.582;10.062;2022-09-29T05:25:16;99963.81;;;8.98;88.66
17785;BME280;9016;53.582;10.062;2022-09-29T05:27:44;99970.28;;;8.94;88.99
17785;BME280;9016;53.582;10.062;2022-09-29T05:30:12;99963.75;;;8.86;89.91
17785;BME280;9016;53.582;10.062;2022-09-29T05:32:42;99970.38;;;8.93;89.72
17785;BME280;9016;53.582;10.062;2022-09-29T05:35:10;99969.88;;;9.00;89.43
17785;BME280;9016;53.582;10.062;2022-09-29T05:37:38;99976.16;;;8.99;89.87
17785;BME280;9016;53.582;10.062;2022-09-29T05:40:08;99969.38;;;9.08;89.00
17785;BME280;9016;53.582;10.062;2022-09-29T05:42:37;99972.56;;;9.13;89.12
17785;BME280;9016;53.582;10.062;2022-09-29T05:45:07;99973.44;;;9.26;89.18
17785;BME280;9016;53.582;10.062;2022-09-29T05:47:40;99973.38;;;9.28;88.62
17785;BME280;9016;53.582;10.062;2022-09-29T05:50:09;99977.19;;;9.24;89.26
17785;BME280;9016;53.582;10.062;2022-09-29T05:52:37;99976.09;;;9.26;89.00
17785;BME280;9016;53.582;10.062;2022-09-29T05:55:08;99974.00;;;9.31;89.46
17785;BME280;9016;53.582;10.062;2022-09-29T05:57:37;99976.34;;;9.36;88.53
17785;BME280;9016;53.582;10.062;2022-09-29T06:00:06;99977.44;;;9.46;89.27
17785;BME280;9016;53.582;10.062;2022-09-29T06:02:34;99977.00;;;9.52;88.94
17785;BME280;9016;53.582;10.062;2022-09-29T06:05:03;99976.28;;;9.62;88.48
17785;BME280;9016;53.582;10.062;2022-09-29T06:07:33;99973.13;;;9.70;87.91
17785;BME280;9016;53.582;10.062;2022-09-29T06:10:05;99978.97;;;9.87;87.21
17785;BME280;9016;53.582;10.062;2022-09-29T06:12:36;99976.63;;;9.95;87.19
17785;BME280;9016;53.582;10.062;2022-09-29T06:15:04;99976.28;;;10.00;86.72
17785;BME280;9016;53.582;10.062;2022-09-29T06:17:33;99979.81;;;10.13;86.76
17785;BME280;9016;53.582;10.062;2022-09-29T06:20:01;99977.16;;;10.26;86.36
17785;BME280;9016;53.582;10.062;2022-09-29T06:22:29;99973.41;;;10.28;85.38
17785;BME280;9016;53.582;10.062;2022-09-29T06:24:58;99979.81;;;10.38;85.42
17785;BME280;9016;53.582;10.062;2022-09-29T06:27:26;99976.38;;;10.49;84.83
17785;BME280;9016;53.582;10.062;2022-09-29T06:29:55;99987.03;;;10.49;84.54
17785;BME280;9016;53.582;10.062;2022-09-29T06:32:23;99990.94;;;10.56;84.25
17785;BME280;9016;53.582;10.062;2022-09-29T06:34:51;99988.91;;;10.59;84.34
17785;BME280;9016;53.582;10.062;2022-09-29T06:37:45;99997.84;;;10.71;83.93
17785;BME280;9016;53.582;10.062;2022-09-29T06:40:13;99986.94;;;10.74;83.75
17785;BME280;9016;53.582;10.062;2022-09-29T06:42:41;99997.28;;;10.78;84.23
17785;BME280;9016;53.582;10.062;2022-09-29T06:45:11;99990.84;;;10.93;84.33
17785;BME280;9016;53.582;10.062;2022-09-29T06:47:39;99995.97;;;11.08;83.79
17785;BME280;9016;53.582;10.062;2022-09-29T06:50:07;100005.09;;;11.16;83.47
17785;BME280;9016;53.582;10.062;2022-09-29T06:52:48;100004.94;;;11.30;83.04
17785;BME280;9016;53.582;10.062;2022-09-29T06:55:30;99994.31;;;11.41;82.43
17785;BME280;9016;53.582;10.062;2022-09-29T06:57:58;100000.31;;;11.56;82.48
17785;BME280;9016;53.582;10.062;2022-09-29T07:00:31;99998.00;;;11.62;81.97
17785;BME280;9016;53.582;10.062;2022-09-29T07:03:00;99986.91;;;11.68;81.52
17785;BME280;9016;53.582;10.062;2022-09-29T07:05:28;99987.78;;;11.80;81.62
17785;BME280;9016;53.582;10.062;2022-09-29T07:07:57;99988.16;;;11.86;82.11
17785;BME280;9016;53.582;10.062;2022-09-29T07:10:27;100003.25;;;11.99;82.00
17785;BME280;9016;53.582;10.062;2022-09-29T07:12:54;100000.81;;;12.07;81.29
17785;BME280;9016;53.582;10.062;2022-09-29T07:15:23;99997.19;;;12.08;81.49
17785;BME280;9016;53.582;10.062;2022-09-29T07:17:59;99996.06;;;12.10;82.40
17785;BME280;9016;53.582;10.062;2022-09-29T07:20:28;99996.00;;;12.23;81.87
17785;BME280;9016;53.582;10.062;2022-09-29T07:22:57;100003.41;;;12.41;81.57
17785;BME280;9016;53.582;10.062;2022-09-29T07:25:25;100004.81;;;12.56;81.16
17785;BME280;9016;53.582;10.062;2022-09-29T07:28:13;100001.91;;;12.70;80.04
17785;BME280;9016;53.582;10.062;2022-09-29T07:30:41;100006.63;;;12.78;79.88
17785;BME280;9016;53.582;10.062;2022-09-29T07:33:10;100007.94;;;12.94;78.76
17785;BME280;9016;53.582;10.062;2022-09-29T07:35:38;100016.19;;;12.91;78.92
17785;BME280;9016;53.582;10.062;2022-09-29T07:38:06;100013.53;;;13.03;78.11
17785;BME280;9016;53.582;10.062;2022-09-29T07:40:34;100011.44;;;13.06;78.50
17785;BME280;9016;53.582;10.062;2022-09-29T07:43:03;100014.69;;;13.21;77.52
17785;BME280;9016;53.582;10.062;2022-09-29T07:45:31;100015.38;;;13.34;76.73
17785;BME280;9016;53.582;10.062;2022-09-29T07:47:59;100024.47;;;13.42;76.40
17785;BME280;9016;53.582;10.062;2022-09-29T07:50:29;100025.31;;;13.43;75.40
17785;BME280;9016;53.582;10.062;2022-09-29T07:52:57;100013.88;;;13.52;75.28
17785;BME280;9016;53.582;10.062;2022-09-29T07:55:25;100023.31;;;13.56;74.81
17785;BME280;9016;53.582;10.062;2022-09-29T07:57:53;100018.53;;;13.59;74.59
17785;BME280;9016;53.582;10.062;2022-09-29T08:00:22;100021.94;;;13.61;72.39
17785;BME280;9016;53.582;10.062;2022-09-29T08:02:50;100025.75;;;13.59;74.27
17785;BME280;9016;53.582;10.062;2022-09-29T08:05:18;100019.28;;;13.61;74.37
17785;BME280;9016;53.582;10.062;2022-09-29T08:07:51;100028.56;;;13.78;74.86
17785;BME280;9016;53.582;10.062;2022-09-29T08:10:19;100031.31;;;13.87;73.66
17785;BME280;9016;53.582;10.062;2022-09-29T08:12:47;100034.84;;;13.88;72.73
17785;BME280;9016;53.582;10.062;2022-09-29T08:15:15;100039.75;;;13.83;73.73
17785;BME280;9016;53.582;10.062;2022-09-29T08:17:43;100037.06;;;13.83;73.46
17785;BME280;9016;53.582;10.062;2022-09-29T08:20:12;100033.69;;;13.81;73.47
17785;BME280;9016;53.582;10.062;2022-09-29T08:22:40;100041.19;;;13.87;73.27
17785;BME280;9016;53.582;10.062;2022-09-29T08:25:09;100036.28;;;14.13;73.05
17785;BME280;9016;53.582;10.062;2022-09-29T08:27:37;100037.63;;;14.48;72.25
17785;BME280;9016;53.582;10.062;2022-09-29T08:30:19;100045.81;;;14.47;71.75
17785;BME280;9016;53.582;10.062;2022-09-29T08:32:50;100048.63;;;14.45;70.07
17785;BME280;9016;53.582;10.062;2022-09-29T08:35:18;100049.47;;;14.25;71.41
17785;BME280;9016;53.582;10.062;2022-09-29T08:37:46;100049.16;;;14.39;70.49
17785;BME280;9016;53.582;10.062;2022-09-29T08:40:16;100047.72;;;14.35;70.16
17785;BME280;9016;53.582;10.062;2022-09-29T08:42:53;100047.38;;;14.49;70.32
17785;BME280;9016;53.582;10.062;2022-09-29T08:45:27;100053.50;;;14.31;69.36
17785;BME280;9016;53.582;10.062;2022-09-29T08:48:03;100053.41;;;14.42;69.32
17785;BME280;9016;53.582;10.062;2022-09-29T08:50:49;100062.13;;;14.64;69.62
17785;BME280;9016;53.582;10.062;2022-09-29T08:53:23;100062.22;;;14.53;68.34
17785;BME280;9016;53.582;10.062;2022-09-29T08:55:59;100061.84;;;14.37;69.22
17785;BME280;9016;53.582;10.062;2022-09-29T08:58:29;100061.16;;;14.45;69.16
17785;BME280;9016;53.582;10.062;2022-09-29T09:01:08;100064.53;;;14.67;68.16
17785;BME280;9016;53.582;10.062;2022-09-29T09:06:50;100059.09;;;15.37;66.14
17785;BME280;9016;53.582;10.062;2022-09-29T09:09:37;100060.47;;;15.32;64.91
17785;BME280;9016;53.582;10.062;2022-09-29T09:12:20;100065.94;;;15.51;65.10
17785;BME280;9016;53.582;10.062;2022-09-29T09:15:01;100071.84;;;15.73;65.14
17785;BME280;9016;53.582;10.062;2022-09-29T09:17:52;100080.19;;;15.70;63.93
17785;BME280;9016;53.582;10.062;2022-09-29T09:20:32;100070.31;;;15.61;64.40
17785;BME280;9016;53.582;10.062;2022-09-29T09:23:05;100074.69;;;15.62;63.63
17785;BME280;9016;53.582;10.062;2022-09-29T09:25:38;100076.25;;;15.65;64.71
17785;BME280;9016;53.582;10.062;2022-09-29T09:28:13;100069.88;;;15.47;63.79
17785;BME280;9016;53.582;10.062;2022-09-29T09:30:47;100079.91;;;15.45;64.36
17785;BME280;9016;53.582;10.062;2022-09-29T09:33:24;100082.78;;;15.23;65.72
17785;BME280;9016;53.582;10.062;2022-09-29T09:36:02;100079.25;;;15.22;66.00
17785;BME280;9016;53.582;10.062;2022-09-29T09:38:44;100085.63;;;15.21;65.69
17785;BME280;9016;53.582;10.062;2022-09-29T09:41:16;100088.66;;;15.07;66.15
17785;BME280;9016;53.582;10.062;2022-09-29T09:43:50;100085.59;;;15.12;66.16
17785;BME280;9016;53.582;10.062;2022-09-29T09:46:22;100086.72;;;15.19;66.65
17785;BME280;9016;53.582;10.062;2022-09-29T09:49:01;100086.06;;;15.36;66.33
17785;BME280;9016;53.582;10.062;2022-09-29T09:51:38;100086.47;;;15.31;65.45
17785;BME280;9016;53.582;10.062;2022-09-29T09:54:12;100090.25;;;15.49;65.23
17785;BME280;9016;53.582;10.062;2022-09-29T09:56:51;100085.41;;;15.62;65.27
17785;BME280;9016;53.582;10.062;2022-09-29T09:59:37;100089.09;;;15.52;63.63
17785;BME280;9016;53.582;10.062;2022-09-29T10:02:15;100090.41;;;15.27;64.57
17785;BME280;9016;53.582;10.062;2022-09-29T10:04:48;100090.69;;;15.24;65.47
17785;BME280;9016;53.582;10.062;2022-09-29T10:07:19;100095.88;;;15.56;65.45
17785;BME280;9016;53.582;10.062;2022-09-29T10:09:47;100092.78;;;15.79;64.88
17785;BME280;9016;53.582;10.062;2022-09-29T10:12:17;100097.31;;;15.88;64.52
17785;BME280;9016;53.582;10.062;2022-09-29T10:14:51;100101.00;;;15.78;63.26
17785;BME280;9016;53.582;10.062;2022-09-29T10:17:24;100097.28;;;15.50;64.35
17785;BME280;9016;53.582;10.062;2022-09-29T10:19:57;100098.84;;;15.72;65.15
17785;BME280;9016;53.582;10.062;2022-09-29T10:22:26;100092.50;;;15.92;63.69
17785;BME280;9016;53.582;10.062;2022-09-29T10:25:05;100103.94;;;15.84;64.26
17785;BME280;9016;53.582;10.062;2022-09-29T10:27:39;100103.97;;;15.94;63.87
17785;BME280;9016;53.582;10.062;2022-09-29T10:30:18;100101.81;;;16.17;63.96
17785;BME280;9016;53.582;10.062;2022-09-29T10:32:48;100096.69;;;16.52;62.77
17785;BME280;9016;53.582;10.062;2022-09-29T10:35:21;100098.09;;;16.65;62.49
17785;BME280;9016;53.582;10.062;2022-09-29T10:37:58;100099.94;;;16.55;62.03
17785;BME280;9016;53.582;10.062;2022-09-29T10:40:27;100103.94;;;16.23;62.99
17785;BME280;9016;53.582;10.062;2022-09-29T10:42:56;100111.72;;;16.35;62.71
17785;BME280;9016;53.582;10.062;2022-09-29T10:45:26;100117.38;;;16.32;63.16
17785;BME280;9016;53.582;10.062;2022-09-29T10:48:11;100108.22;;;16.06;63.01
17785;BME280;9016;53.582;10.062;2022-09-29T10:50:48;100119.09;;;16.05;63.09
17785;BME280;9016;53.582;10.062;2022-09-29T10:53:25;100121.78;;;16.05;63.63
17785;BME280;9016;53.582;10.062;2022-09-29T10:55:55;100127.59;;;16.00;63.82
17785;BME280;9016;53.582;10.062;2022-09-29T10:58:27;100129.00;;;15.95;63.85
17785;BME280;9016;53.582;10.062;2022-09-29T11:01:18;100133.22;;;15.68;64.64
17785;BME280;9016;53.582;10.062;2022-09-29T11:03:49;100131.19;;;15.51;65.12
17785;BME280;9016;53.582;10.062;2022-09-29T11:06:25;100125.91;;;15.31;65.16
17785;BME280;9016;53.582;10.062;2022-09-29T11:08:56;100125.44;;;15.26;65.82
17785;BME280;9016;53.582;10.062;2022-09-29T11:11:26;100135.50;;;15.33;66.06
17785;BME280;9016;53.582;10.062;2022-09-29T11:13:55;100132.06;;;15.52;66.37
17785;BME280;9016;53.582;10.062;2022-09-29T11:16:30;100138.28;;;15.52;65.34
17785;BME280;9016;53.582;10.062;2022-09-29T11:19:03;100140.53;;;15.47;65.06
17785;BME280;9016;53.582;10.062;2022-09-29T11:21:54;100147.88;;;15.45;64.84
17785;BME280;9016;53.582;10.062;2022-09-29T11:24:38;100148.03;;;15.44;64.75
17785;BME280;9016;53.582;10.062;2022-09-29T11:27:17;100150.56;;;15.15;66.41
17785;BME280;9016;53.582;10.062;2022-09-29T11:29:59;100152.78;;;15.01;66.67
17785;BME280;9016;53.582;10.062;2022-09-29T11:32:42;100155.72;;;14.98;67.78
17785;BME280;9016;53.582;10.062;2022-09-29T11:35:28;100158.66;;;14.95;67.34
17785;BME280;9016;53.582;10.062;2022-09-29T11:38:12;100156.78;;;15.16;66.91
17785;BME280;9016;53.582;10.062;2022-09-29T11:40:51;100161.41;;;15.04;67.73
17785;BME280;9016;53.582;10.062;2022-09-29T11:43:40;100164.38;;;15.11;67.65
17785;BME280;9016;53.582;10.062;2022-09-29T11:46:21;100163.59;;;15.20;67.82
17785;BME280;9016;53.582;10.062;2022-09-29T11:49:18;100161.59;;;15.22;67.88
17785;BME280;9016;53.582;10.062;2022-09-29T11:52:03;100161.88;;;15.19;67.71
17785;BME280;9016;53.582;10.062;2022-09-29T11:54:47;100160.34;;;15.26;68.21
17785;BME280;9016;53.582;10.062;2022-09-29T11:57:33;100167.16;;;15.30;67.98
17785;BME280;9016;53.582;10.062;2022-09-29T12:00:07;100170.16;;;15.36;68.43
17785;BME280;9016;53.582;10.062;2022-09-29T12:05:56;100170.47;;;15.43;67.05
17785;BME280;9016;53.582;10.062;2022-09-29T12:08:39;100177.84;;;15.50;67.29
17785;BME280;9016;53.582;10.062;2022-09-29T12:11:13;100175.44;;;15.47;67.61
17785;BME280;9016;53.582;10.062;2022-09-29T12:14:10;100173.34;;;15.51;67.67
17785;BME280;9016;53.582;10.062;2022-09-29T12:16:46;100171.47;;;15.51;67.77
17785;BME280;9016;53.582;10.062;2022-09-29T12:19:20;100176.59;;;15.54;67.75
17785;BME280;9016;53.582;10.062;2022-09-29T12:21:53;100165.31;;;15.60;67.73
17785;BME280;9016;53.582;10.062;2022-09-29T12:24:29;100174.34;;;15.69;67.98
17785;BME280;9016;53.582;10.062;2022-09-29T12:26:59;100172.94;;;15.74;68.07
17785;BME280;9016;53.582;10.062;2022-09-29T12:29:33;100172.75;;;15.57;67.83
17785;BME280;9016;53.582;10.062;2022-09-29T12:32:07;100173.91;;;15.54;68.28
17785;BME280;9016;53.582;10.062;2022-09-29T12:34:41;100171.78;;;15.58;68.78
17785;BME280;9016;53.582;10.062;2022-09-29T12:37:17;100177.91;;;15.39;69.83
17785;BME280;9016;53.582;10.062;2022-09-29T12:39:58;100186.25;;;15.36;69.40
17785;BME280;9016;53.582;10.062;2022-09-29T12:42:38;100189.63;;;15.29;72.20
17785;BME280;9016;53.582;10.062;2022-09-29T12:45:18;100184.75;;;15.13;72.73
17785;BME280;9016;53.582;10.062;2022-09-29T12:47:59;100183.59;;;15.06;74.44
17785;BME280;9016;53.582;10.062;2022-09-29T12:50:31;100187.06;;;14.97;76.77
17785;BME280;9016;53.582;10.062;2022-09-29T12:53:08;100180.41;;;14.92;77.79
17785;BME280;9016;53.582;10.062;2022-09-29T12:55:44;100182.66;;;14.86;78.53
17785;BME280;9016;53.582;10.062;2022-09-29T12:58:19;100187.31;;;14.94;78.62
17785;BME280;9016;53.582;10.062;2022-09-29T13:00:53;100191.28;;;15.00;78.76
17785;BME280;9016;53.582;10.062;2022-09-29T13:04:06;100194.16;;;15.08;78.53
17785;BME280;9016;53.582;10.062;2022-09-29T13:06:58;100198.09;;;15.04;77.97
17785;BME280;9016;53.582;10.062;2022-09-29T13:09:59;100201.94;;;15.01;77.12
17785;BME280;9016;53.582;10.062;2022-09-29T13:12:51;100201.66;;;15.04;76.79
17785;BME280;9016;53.582;10.062;2022-09-29T13:15:32;100205.72;;;14.99;74.34
17785;BME280;9016;53.582;10.062;2022-09-29T13:18:30;100210.59;;;15.14;74.52
17785;BME280;9016;53.582;10.062;2022-09-29T13:21:17;100210.78;;;15.02;75.52
17785;BME280;9016;53.582;10.062;2022-09-29T13:23:59;100206.47;;;15.10;75.71
17785;BME280;9016;53.582;10.062;2022-09-29T13:26:41;100210.72;;;15.13;75.00
17785;BME280;9016;53.582;10.062;2022-09-29T13:29:18;100210.09;;;15.00;73.83
17785;BME280;9016;53.582;10.062;2022-09-29T13:31:48;100209.34;;;14.88;74.40
17785;BME280;9016;53.582;10.062;2022-09-29T13:34:25;100214.84;;;14.86;74.07
17785;BME280;9016;53.582;10.062;2022-09-29T13:37:04;100208.28;;;14.79;73.09
17785;BME280;9016;53.582;10.062;2022-09-29T13:39:34;100212.91;;;14.77;74.47